createdAt,value
2019-03-16T00:01:56.971Z,99.90
2019-03-16T00:04:23.138Z,99.90
2019-03-16T00:06:51.970Z,99.90
2019-03-16T00:09:20.989Z,99.90
2019-03-16T00:11:49.936Z,99.90
2019-03-16T00:14:18.866Z,99.90
2019-03-16T00:16:47.701Z,99.90
2019-03-16T00:19:16.545Z,99.90
2019-03-16T00:21:45.385Z,99.90
2019-03-16T00:24:14.247Z,99.90
2019-03-16T00:26:43.078Z,99.90
2019-03-16T00:29:12.297Z,99.90
2019-03-16T00:31:41.134Z,99.90
2019-03-16T00:34:09.985Z,99.90
2019-03-16T00:36:38.909Z,99.90
2019-03-16T00:39:09.301Z,99.90
2019-03-16T00:41:38.206Z,99.90
2019-03-16T00:44:07.392Z,99.90
2019-03-16T00:46:36.483Z,99.90
2019-03-16T00:49:05.518Z,99.90
2019-03-16T00:51:34.444Z,99.90
2019-03-16T00:54:03.977Z,99.90
2019-03-16T00:56:33.173Z,99.90
2019-03-16T00:59:02.019Z,99.90
2019-03-16T01:01:31.471Z,99.90
2019-03-16T01:04:00.741Z,99.90
2019-03-16T01:06:29.578Z,99.90
2019-03-16T01:08:58.763Z,99.90
2019-03-16T01:11:27.753Z,99.90
2019-03-16T01:13:56.974Z,99.90
2019-03-16T01:16:26.163Z,99.90
2019-03-16T01:18:54.989Z,99.90
2019-03-16T01:21:23.901Z,99.90
2019-03-16T01:23:52.729Z,99.90
2019-03-16T01:26:21.991Z,99.90
2019-03-16T01:28:50.819Z,99.90
2019-03-16T01:31:19.670Z,99.90
2019-03-16T01:33:48.790Z,99.90
2019-03-16T01:36:17.735Z,99.90
2019-03-16T01:38:46.596Z,99.90
2019-03-16T01:41:15.506Z,99.90
2019-03-16T01:43:44.602Z,99.90
2019-03-16T01:46:13.528Z,99.90
2019-03-16T01:48:42.365Z,99.90
2019-03-16T01:51:11.546Z,99.90
2019-03-16T01:53:40.778Z,99.90
2019-03-16T01:56:09.622Z,99.90
2019-03-16T01:58:38.446Z,99.90
2019-03-16T02:01:07.833Z,99.90
2019-03-16T02:03:36.662Z,99.90
2019-03-16T02:06:05.586Z,99.90
2019-03-16T02:08:34.414Z,99.90
2019-03-16T02:11:03.267Z,99.90
2019-03-16T02:13:32.482Z,99.90
2019-03-16T02:16:11.008Z,99.90
2019-03-16T02:18:32.236Z,99.90
2019-03-16T02:21:01.514Z,99.90
2019-03-16T02:23:30.474Z,99.90
2019-03-16T02:25:59.383Z,99.90
2019-03-16T02:28:28.495Z,99.90
2019-03-16T02:30:57.459Z,99.90
2019-03-16T02:33:26.305Z,99.90
2019-03-16T02:35:55.886Z,99.90
2019-03-16T02:38:25.110Z,99.90
2019-03-16T02:40:54.695Z,99.90
2019-03-16T02:43:23.822Z,99.90
2019-03-16T02:45:52.986Z,99.90
2019-03-16T02:48:21.902Z,99.90
2019-03-16T02:50:50.822Z,99.90
2019-03-16T02:53:19.666Z,99.90
2019-03-16T02:55:48.583Z,99.90
2019-03-16T02:58:17.413Z,99.90
2019-03-16T03:00:46.267Z,99.90
2019-03-16T03:03:28.395Z,99.90
2019-03-16T03:05:45.660Z,99.90
2019-03-16T03:08:14.872Z,99.90
2019-03-16T03:10:43.867Z,99.90
2019-03-16T03:13:13.914Z,99.90
2019-03-16T03:15:43.076Z,99.90
2019-03-16T03:18:12.265Z,99.90
2019-03-16T03:20:41.449Z,99.90
2019-03-16T03:23:10.288Z,99.90
2019-03-16T03:25:39.460Z,99.90
2019-03-16T03:28:08.470Z,99.90
2019-03-16T03:30:37.315Z,99.90
2019-03-16T03:33:06.274Z,99.90
2019-03-16T03:35:35.113Z,99.90
2019-03-16T03:38:04.022Z,99.90
2019-03-16T03:40:33.130Z,99.90
2019-03-16T03:43:02.041Z,99.90
2019-03-16T03:45:30.955Z,99.90
2019-03-16T03:47:59.859Z,99.90
2019-03-16T03:50:28.716Z,99.90
2019-03-16T03:52:57.673Z,99.90
2019-03-16T03:55:27.069Z,99.90
2019-03-16T03:57:56.067Z,99.90
2019-03-16T04:00:24.985Z,99.90
2019-03-16T04:02:54.347Z,99.90
2019-03-16T04:05:23.334Z,99.90
2019-03-16T04:07:52.363Z,99.90
2019-03-16T04:10:21.210Z,99.90
2019-03-16T04:12:50.127Z,99.90
2019-03-16T04:15:19.110Z,99.90
2019-03-16T04:17:48.045Z,99.90
2019-03-16T04:20:17.079Z,99.90
2019-03-16T04:22:45.927Z,99.90
2019-03-16T04:25:15.105Z,99.90
2019-03-16T04:27:44.035Z,99.90
2019-03-16T04:30:12.963Z,99.90
2019-03-16T04:32:42.263Z,99.90
2019-03-16T04:35:11.514Z,99.90
2019-03-16T04:37:40.358Z,99.90
2019-03-16T04:40:09.655Z,99.90
2019-03-16T04:42:38.565Z,99.90
2019-03-16T04:45:07.586Z,99.90
2019-03-16T04:47:36.493Z,99.90
2019-03-16T04:50:05.706Z,99.90
2019-03-16T04:52:34.828Z,99.90
2019-03-16T04:55:03.725Z,99.90
2019-03-16T04:57:32.578Z,99.90
2019-03-16T05:00:01.753Z,99.90
2019-03-16T05:02:30.626Z,99.90
2019-03-16T05:04:59.457Z,99.90
2019-03-16T05:07:28.294Z,99.90
2019-03-16T05:09:57.205Z,99.90
2019-03-16T05:12:26.049Z,99.90
2019-03-16T05:14:54.894Z,99.90
2019-03-16T05:17:24.042Z,99.90
2019-03-16T05:19:52.982Z,99.90
2019-03-16T05:22:21.830Z,99.90
2019-03-16T05:24:51.315Z,99.90
2019-03-16T05:27:20.429Z,99.90
2019-03-16T05:29:49.585Z,99.90
2019-03-16T05:32:19.038Z,99.90
2019-03-16T05:34:56.569Z,99.90
2019-03-16T05:37:18.787Z,99.90
2019-03-16T05:39:47.620Z,99.90
2019-03-16T05:42:16.534Z,99.90
2019-03-16T05:44:45.742Z,99.90
2019-03-16T05:47:14.669Z,99.90
2019-03-16T05:49:43.925Z,99.90
2019-03-16T05:52:12.861Z,99.90
2019-03-16T05:54:41.989Z,99.90
2019-03-16T05:57:11.118Z,99.90
2019-03-16T05:59:40.032Z,99.90
2019-03-16T06:02:09.314Z,99.90
2019-03-16T06:04:38.253Z,99.90
2019-03-16T06:07:07.119Z,99.90
2019-03-16T06:09:35.968Z,99.90
2019-03-16T06:12:04.945Z,99.90
2019-03-16T06:14:33.824Z,99.90
2019-03-16T06:17:02.659Z,99.90
2019-03-16T06:19:31.509Z,99.90
2019-03-16T06:22:00.746Z,99.90
2019-03-16T06:24:29.597Z,99.90
2019-03-16T06:26:58.450Z,99.90
2019-03-16T06:29:27.375Z,99.90
2019-03-16T06:31:56.522Z,99.90
2019-03-16T06:34:25.365Z,99.90
2019-03-16T06:36:54.198Z,99.90
2019-03-16T06:39:23.387Z,99.90
2019-03-16T06:41:52.315Z,99.90
2019-03-16T06:44:21.785Z,99.90
2019-03-16T06:46:50.986Z,99.90
2019-03-16T06:49:19.833Z,99.90
2019-03-16T06:51:49.076Z,99.90
2019-03-16T06:54:18.270Z,99.90
2019-03-16T06:56:47.130Z,99.90
2019-03-16T06:59:15.990Z,99.90
2019-03-16T07:01:44.837Z,99.90
2019-03-16T07:04:13.693Z,99.90
2019-03-16T07:06:42.543Z,99.90
2019-03-16T07:09:11.472Z,99.90
2019-03-16T07:11:40.323Z,99.90
2019-03-16T07:14:09.553Z,99.90
2019-03-16T07:16:38.385Z,99.90
2019-03-16T07:19:07.487Z,99.90
2019-03-16T07:21:36.393Z,99.90
2019-03-16T07:24:05.319Z,99.90
2019-03-16T07:26:34.155Z,99.90
2019-03-16T07:29:22.218Z,99.90
2019-03-16T07:31:51.710Z,99.90
2019-03-16T07:34:20.659Z,99.90
2019-03-16T07:36:49.493Z,99.90
2019-03-16T07:39:18.426Z,99.90
2019-03-16T07:41:47.297Z,99.90
2019-03-16T07:44:16.784Z,99.90
2019-03-16T07:46:45.618Z,99.90
2019-03-16T07:49:14.478Z,99.90
2019-03-16T07:51:43.721Z,99.90
2019-03-16T07:54:12.583Z,99.90
2019-03-16T07:56:41.421Z,99.90
2019-03-16T07:59:10.309Z,99.90
2019-03-16T08:01:39.155Z,99.90
2019-03-16T08:04:08.317Z,99.90
2019-03-16T08:06:37.149Z,99.90
2019-03-16T08:09:06.977Z,99.90
2019-03-16T08:11:35.871Z,99.90
2019-03-16T08:14:05.209Z,99.90
2019-03-16T08:16:34.415Z,99.90
2019-03-16T08:19:03.714Z,99.90
2019-03-16T08:21:32.914Z,99.90
2019-03-16T08:24:02.111Z,99.90
2019-03-16T08:26:31.043Z,99.90
2019-03-16T08:28:59.956Z,99.90
2019-03-16T08:31:28.801Z,99.90
2019-03-16T08:33:57.636Z,99.90
2019-03-16T08:36:26.770Z,99.90
2019-03-16T08:38:55.624Z,99.90
2019-03-16T08:41:24.454Z,99.90
2019-03-16T08:43:53.361Z,99.90
2019-03-16T08:46:22.755Z,99.90
2019-03-16T08:48:51.959Z,99.90
2019-03-16T08:51:20.806Z,99.90
2019-03-16T08:53:49.661Z,99.90
2019-03-16T08:56:18.501Z,99.90
2019-03-16T08:58:47.411Z,99.90
2019-03-16T09:01:16.806Z,99.90
2019-03-16T09:03:45.655Z,99.90
2019-03-16T09:06:14.571Z,99.90
2019-03-16T09:08:43.569Z,99.90
2019-03-16T09:11:12.427Z,99.90
2019-03-16T09:13:41.284Z,99.90
2019-03-16T09:16:10.134Z,99.90
2019-03-16T09:18:39.288Z,99.90
2019-03-16T09:21:08.450Z,99.90
2019-03-16T09:23:37.286Z,99.90
2019-03-16T09:26:06.146Z,99.90
2019-03-16T09:28:35.355Z,99.90
2019-03-16T09:31:04.349Z,99.90
2019-03-16T09:33:33.189Z,99.90
2019-03-16T09:36:02.557Z,99.90
2019-03-16T09:38:31.411Z,99.90
2019-03-16T09:41:00.265Z,99.90
2019-03-16T09:43:29.143Z,99.90
2019-03-16T09:45:58.045Z,99.90
2019-03-16T09:48:27.707Z,99.90
2019-03-16T09:50:56.620Z,99.90
2019-03-16T09:53:25.461Z,99.90
2019-03-16T09:55:54.470Z,99.90
2019-03-16T09:58:31.298Z,99.90
2019-03-16T10:00:53.888Z,99.90
2019-03-16T10:03:22.722Z,99.90
2019-03-16T10:05:51.871Z,99.90
2019-03-16T10:08:21.062Z,99.90
2019-03-16T10:10:50.366Z,99.90
2019-03-16T10:13:19.217Z,99.90
2019-03-16T10:15:48.358Z,99.90
2019-03-16T10:18:17.233Z,99.90
2019-03-16T10:20:46.130Z,99.90
2019-03-16T10:23:15.334Z,99.90
2019-03-16T10:25:44.170Z,99.90
2019-03-16T10:28:13.322Z,99.90
2019-03-16T10:30:42.158Z,99.90
2019-03-16T10:33:11.428Z,99.90
2019-03-16T10:35:40.291Z,99.90
2019-03-16T10:38:09.498Z,99.90
2019-03-16T10:40:38.798Z,99.90
2019-03-16T10:43:07.660Z,99.90
2019-03-16T10:45:36.562Z,99.90
2019-03-16T10:48:05.781Z,98.40
2019-03-16T10:50:34.656Z,99.90
2019-03-16T10:53:03.586Z,91.20
2019-03-16T10:55:32.438Z,94.20
2019-03-16T10:58:01.297Z,95.80
2019-03-16T11:00:30.142Z,95.30
2019-03-16T11:02:59.434Z,93.20
2019-03-16T11:05:28.265Z,96.70
2019-03-16T11:07:57.113Z,98.30
2019-03-16T11:10:26.022Z,98.80
2019-03-16T11:12:54.876Z,95.20
2019-03-16T11:15:23.997Z,97.60
2019-03-16T11:17:52.910Z,90.20
2019-03-16T11:20:21.951Z,87.80
2019-03-16T11:22:50.790Z,81.30
2019-03-16T11:25:19.694Z,80.20
2019-03-16T11:27:48.859Z,83.90
2019-03-16T11:30:18.041Z,80.10
2019-03-16T11:32:47.561Z,76.30
2019-03-16T11:35:16.545Z,82.00
2019-03-16T11:37:45.403Z,77.60
2019-03-16T11:40:15.050Z,79.10
2019-03-16T11:42:44.017Z,75.80
2019-03-16T11:45:13.018Z,77.70
2019-03-16T11:47:42.538Z,72.20
2019-03-16T11:50:11.472Z,82.40
2019-03-16T11:52:40.702Z,76.20
2019-03-16T11:55:09.936Z,81.10
2019-03-16T11:57:39.138Z,78.70
2019-03-16T12:00:09.153Z,73.80
2019-03-16T12:02:38.009Z,72.50
2019-03-16T12:05:08.058Z,78.40
2019-03-16T12:07:37.430Z,81.00
2019-03-16T12:10:07.441Z,86.40
2019-03-16T12:12:36.421Z,86.70
2019-03-16T12:15:05.690Z,83.90
2019-03-16T12:17:34.966Z,83.90
2019-03-16T12:20:04.549Z,85.50
2019-03-16T12:22:34.193Z,87.20
2019-03-16T12:25:03.204Z,89.70
2019-03-16T12:27:32.382Z,91.60
2019-03-16T12:30:01.305Z,89.60
2019-03-16T12:32:30.366Z,86.30
2019-03-16T12:34:59.498Z,84.40
2019-03-16T12:37:28.659Z,84.60
2019-03-16T12:39:57.788Z,87.80
2019-03-16T12:42:26.639Z,88.00
2019-03-16T12:44:55.746Z,88.40
2019-03-16T12:47:25.354Z,91.70
2019-03-16T12:49:54.545Z,91.80
2019-03-16T12:52:23.482Z,93.60
2019-03-16T12:54:52.638Z,94.40
2019-03-16T12:57:21.469Z,96.10
2019-03-16T12:59:50.414Z,96.90
2019-03-16T13:02:19.260Z,98.90
2019-03-16T13:04:48.402Z,99.20
2019-03-16T13:07:17.247Z,99.90
2019-03-16T13:09:46.166Z,99.90
2019-03-16T13:12:15.006Z,99.90
2019-03-16T13:14:44.173Z,99.90
2019-03-16T13:17:13.013Z,99.90
2019-03-16T13:19:42.318Z,99.90
2019-03-16T13:22:11.162Z,99.90
2019-03-16T13:24:40.022Z,99.90
2019-03-16T13:27:09.282Z,99.90
2019-03-16T13:29:38.142Z,99.90
2019-03-16T13:32:06.970Z,99.90
2019-03-16T13:34:36.241Z,99.90
2019-03-16T13:37:05.281Z,99.90
2019-03-16T13:39:34.209Z,99.90
2019-03-16T13:42:03.224Z,99.90
2019-03-16T13:44:32.418Z,99.90
2019-03-16T13:47:01.254Z,99.90
2019-03-16T13:49:30.103Z,99.90
2019-03-16T13:51:59.286Z,99.90
2019-03-16T13:54:28.934Z,99.90
2019-03-16T13:56:57.843Z,99.90
2019-03-16T13:59:26.984Z,99.90
2019-03-16T14:01:56.082Z,99.90
2019-03-16T14:04:24.919Z,99.90
2019-03-16T14:06:53.761Z,99.90
2019-03-16T14:09:22.721Z,99.90
2019-03-16T14:11:52.191Z,99.90
2019-03-16T14:14:21.459Z,99.90
2019-03-16T14:16:50.372Z,99.90
2019-03-16T14:19:19.225Z,99.90
2019-03-16T14:21:48.382Z,99.90
2019-03-16T14:24:17.522Z,99.90
2019-03-16T14:26:46.731Z,99.90
2019-03-16T14:29:15.656Z,99.90
2019-03-16T14:31:44.497Z,99.90
2019-03-16T14:34:13.358Z,99.90
2019-03-16T14:36:42.594Z,99.90
2019-03-16T14:39:11.466Z,99.90
2019-03-16T14:41:40.614Z,99.90
2019-03-16T14:44:09.887Z,99.90
2019-03-16T14:46:38.804Z,99.90
2019-03-16T14:49:08.018Z,99.90
2019-03-16T14:51:36.863Z,99.90
2019-03-16T14:54:06.169Z,99.90
2019-03-16T14:56:35.084Z,99.90
2019-03-16T14:59:04.013Z,99.90
2019-03-16T15:01:33.148Z,99.90
2019-03-16T15:04:02.001Z,99.90
2019-03-16T15:06:31.167Z,99.90
2019-03-16T15:09:00.034Z,99.90
2019-03-16T15:11:29.234Z,99.90
2019-03-16T15:13:58.745Z,99.90
2019-03-16T15:16:27.868Z,99.90
2019-03-16T15:18:56.725Z,99.90
2019-03-16T15:21:25.679Z,99.90
2019-03-16T15:23:54.923Z,99.90
2019-03-16T15:26:23.901Z,99.90
2019-03-16T15:28:55.222Z,99.90
2019-03-16T15:31:23.694Z,99.90
2019-03-16T15:33:52.573Z,99.90
2019-03-16T15:36:21.429Z,99.90
2019-03-16T15:38:50.330Z,99.90
2019-03-16T15:41:19.201Z,99.90
2019-03-16T15:43:48.882Z,99.90
2019-03-16T15:46:17.808Z,99.90
2019-03-16T15:48:46.734Z,99.90
2019-03-16T15:51:15.985Z,99.90
2019-03-16T15:53:45.289Z,99.90
2019-03-16T15:56:14.153Z,99.90
2019-03-16T15:58:43.614Z,99.90
2019-03-16T16:01:13.009Z,99.90
2019-03-16T16:03:41.905Z,99.90
2019-03-16T16:06:11.277Z,99.90
2019-03-16T16:08:40.122Z,99.90
2019-03-16T16:11:09.061Z,99.90
2019-03-16T16:13:38.412Z,99.90
2019-03-16T16:16:07.446Z,99.90
2019-03-16T16:18:36.342Z,99.90
2019-03-16T16:21:05.667Z,99.90
2019-03-16T16:23:34.879Z,99.90
2019-03-16T16:26:04.170Z,99.90
2019-03-16T16:28:33.393Z,99.90
2019-03-16T16:31:02.382Z,99.90
2019-03-16T16:33:31.300Z,99.90
2019-03-16T16:36:00.162Z,99.90
2019-03-16T16:38:29.007Z,99.90
2019-03-16T16:40:58.211Z,99.90
2019-03-16T16:43:27.462Z,99.90
2019-03-16T16:45:56.670Z,99.90
2019-03-16T16:48:25.577Z,99.90
2019-03-16T16:50:56.897Z,99.90
2019-03-16T16:53:25.915Z,99.90
2019-03-16T16:55:55.043Z,99.90
2019-03-16T16:58:24.446Z,99.90
2019-03-16T17:00:53.610Z,99.90
2019-03-16T17:03:23.250Z,99.90
2019-03-16T17:05:52.952Z,99.90
2019-03-16T17:08:22.263Z,99.90
2019-03-16T17:10:51.458Z,99.90
2019-03-16T17:13:20.316Z,99.90
2019-03-16T17:15:49.450Z,99.90
2019-03-16T17:18:18.659Z,99.90
2019-03-16T17:20:47.653Z,99.90
2019-03-16T17:23:16.874Z,99.90
2019-03-16T17:25:46.246Z,99.90
2019-03-16T17:28:15.745Z,99.90
2019-03-16T17:30:45.051Z,99.90
2019-03-16T17:33:13.986Z,99.90
2019-03-16T17:35:42.910Z,99.90
2019-03-16T17:38:11.830Z,99.90
2019-03-16T17:40:40.785Z,99.90
2019-03-16T17:43:09.915Z,99.90
2019-03-16T17:45:39.171Z,99.90
2019-03-16T17:48:08.414Z,99.90
2019-03-16T17:50:37.400Z,99.90
2019-03-16T17:53:08.480Z,99.90
2019-03-16T17:55:37.752Z,99.90
2019-03-16T17:58:07.362Z,99.90
2019-03-16T18:00:36.498Z,99.90
2019-03-16T18:03:05.518Z,99.90
2019-03-16T18:05:34.467Z,99.90
2019-03-16T18:08:03.838Z,99.90
2019-03-16T18:10:33.151Z,99.90
2019-03-16T18:13:02.451Z,99.90
2019-03-16T18:15:31.770Z,99.90
2019-03-16T18:18:01.157Z,99.90
2019-03-16T18:20:30.074Z,99.90
2019-03-16T18:22:59.395Z,99.90
2019-03-16T18:25:28.534Z,99.90
2019-03-16T18:27:57.838Z,99.90
2019-03-16T18:30:27.260Z,99.90
2019-03-16T18:32:57.730Z,99.90
2019-03-16T18:35:26.658Z,99.90
2019-03-16T18:40:45.343Z,99.90
2019-03-16T18:43:14.647Z,99.90
2019-03-16T18:45:44.042Z,99.90
2019-03-16T18:48:13.010Z,99.90
2019-03-16T18:50:42.227Z,99.90
2019-03-16T18:53:11.120Z,99.90
2019-03-16T18:55:39.998Z,99.90
2019-03-16T18:58:09.450Z,99.90
2019-03-16T19:00:38.488Z,99.90
2019-03-16T19:03:07.865Z,99.90
2019-03-16T19:05:37.114Z,99.90
2019-03-16T19:08:06.411Z,99.90
2019-03-16T19:10:35.734Z,99.90
2019-03-16T19:13:05.113Z,99.90
2019-03-16T19:15:34.057Z,99.90
2019-03-16T19:18:02.925Z,99.90
2019-03-16T19:20:32.095Z,99.90
2019-03-16T19:23:01.856Z,99.90
2019-03-16T19:25:31.037Z,99.90
2019-03-16T19:28:00.308Z,99.90
2019-03-16T19:30:29.227Z,99.90
2019-03-16T19:32:58.176Z,99.90
2019-03-16T19:35:46.237Z,99.90
2019-03-16T19:38:15.855Z,99.90
2019-03-16T19:40:45.040Z,99.90
2019-03-16T19:43:14.179Z,99.90
2019-03-16T19:45:43.054Z,99.90
2019-03-16T19:48:12.244Z,99.90
2019-03-16T19:50:41.422Z,99.90
2019-03-16T19:53:10.731Z,99.90
2019-03-16T19:55:39.680Z,99.90
2019-03-16T19:58:08.914Z,99.90
2019-03-16T20:00:37.876Z,99.90
2019-03-16T20:03:07.269Z,99.90
2019-03-16T20:05:36.266Z,99.90
2019-03-16T20:08:05.375Z,99.90
2019-03-16T20:10:34.403Z,99.90
2019-03-16T20:13:03.674Z,99.90
2019-03-16T20:15:32.632Z,99.90
2019-03-16T20:18:01.625Z,99.90
2019-03-16T20:20:30.494Z,99.90
2019-03-16T20:22:59.436Z,99.90
2019-03-16T20:25:28.462Z,99.90
2019-03-16T20:27:57.652Z,99.90
2019-03-16T20:30:27.315Z,99.90
2019-03-16T20:33:03.663Z,99.90
2019-03-16T20:35:28.634Z,99.90
2019-03-16T20:37:57.830Z,99.90
2019-03-16T20:40:27.120Z,99.90
2019-03-16T20:42:55.999Z,99.90
2019-03-16T20:45:25.667Z,99.90
2019-03-16T20:47:54.646Z,99.90
2019-03-16T20:50:23.670Z,99.90
2019-03-16T20:52:52.674Z,99.90
2019-03-16T20:55:21.659Z,99.90
2019-03-16T20:57:50.613Z,99.90
2019-03-16T21:00:19.932Z,99.90
2019-03-16T21:02:49.436Z,99.90
2019-03-16T21:05:19.045Z,99.90
2019-03-16T21:07:47.885Z,99.90
2019-03-16T21:10:17.230Z,99.90
2019-03-16T21:12:46.426Z,99.90
2019-03-16T21:15:15.955Z,99.90
2019-03-16T21:17:44.945Z,99.90
2019-03-16T21:20:14.386Z,99.90
2019-03-16T21:22:43.692Z,99.90
2019-03-16T21:25:12.918Z,99.90
2019-03-16T21:27:42.326Z,99.90
2019-03-16T21:30:13.352Z,99.90
2019-03-16T21:32:42.333Z,99.90
2019-03-16T21:35:11.675Z,99.90
2019-03-16T21:37:40.512Z,99.90
2019-03-16T21:40:09.839Z,99.90
2019-03-16T21:42:38.758Z,99.90
2019-03-16T21:45:08.902Z,99.90
2019-03-16T21:47:38.086Z,99.90
2019-03-16T21:50:07.788Z,99.90
2019-03-16T21:52:37.024Z,99.90
2019-03-16T21:55:06.707Z,99.90
2019-03-16T21:57:35.770Z,99.90
2019-03-16T22:00:06.300Z,99.90
2019-03-16T22:02:35.150Z,99.90
2019-03-16T22:05:04.274Z,99.90
2019-03-16T22:07:33.114Z,99.90
2019-03-16T22:10:02.046Z,99.90
2019-03-16T22:12:30.978Z,99.90
2019-03-16T22:14:59.842Z,99.90
2019-03-16T22:17:28.686Z,99.90
2019-03-16T22:19:57.857Z,99.90
2019-03-16T22:22:26.753Z,99.90
2019-03-16T22:24:55.952Z,99.90
2019-03-16T22:27:25.102Z,99.90
2019-03-16T22:29:54.437Z,99.90
2019-03-16T22:32:23.545Z,99.90
2019-03-16T22:34:52.478Z,99.90
2019-03-16T22:37:21.730Z,99.90
2019-03-16T22:39:50.620Z,99.90
2019-03-16T22:42:19.458Z,99.90
2019-03-16T22:44:48.461Z,99.90
2019-03-16T22:47:17.637Z,99.90
2019-03-16T22:49:46.606Z,99.90
2019-03-16T22:52:15.814Z,99.90
2019-03-16T22:54:45.399Z,99.90
2019-03-16T22:57:14.238Z,99.90
2019-03-16T22:59:43.802Z,99.90
2019-03-16T23:02:13.863Z,99.90
2019-03-16T23:04:42.717Z,99.90
2019-03-16T23:07:11.556Z,85.90
2019-03-16T23:09:41.213Z,91.90
2019-03-16T23:12:10.157Z,93.00
2019-03-16T23:14:39.417Z,97.00
2019-03-16T23:17:09.015Z,98.50
2019-03-16T23:19:37.953Z,99.20
2019-03-16T23:22:06.949Z,99.90
2019-03-16T23:24:35.782Z,99.90
2019-03-16T23:27:04.981Z,99.90
2019-03-16T23:29:33.961Z,99.20
2019-03-16T23:32:03.410Z,99.90
2019-03-16T23:34:32.597Z,99.90
2019-03-16T23:37:01.703Z,99.90
2019-03-16T23:39:31.191Z,96.30
2019-03-16T23:42:00.122Z,98.70
2019-03-16T23:44:29.582Z,97.80
2019-03-16T23:46:58.426Z,91.20
2019-03-16T23:49:27.431Z,91.60
2019-03-16T23:51:56.654Z,88.40
2019-03-16T23:54:25.508Z,85.00
2019-03-16T23:56:54.954Z,86.70
2019-03-16T23:59:24.462Z,83.10
